sensor_id;sensor_type;location;lat;lon;timestamp;P1;durP1;ratioP1;P2;durP2;ratioP2
17235;SDS011;8734;59.272;17.780;2024-02-26T00:00:36;34.87;;;11.73;;
17235;SDS011;8734;59.272;17.780;2024-02-26T00:03:06;29.57;;;12.37;;
17235;SDS011;8734;59.272;17.780;2024-02-26T00:05:34;27.93;;;11.03;;
17235;SDS011;8734;59.272;17.780;2024-02-26T00:08:04;32.93;;;11.10;;
17235;SDS011;8734;59.272;17.780;2024-02-26T00:10:33;25.33;;;11.07;;
17235;SDS011;8734;59.272;17.780;2024-02-26T00:13:02;26.27;;;11.07;;
17235;SDS011;8734;59.272;17.780;2024-02-26T00:15:30;28.17;;;11.40;;
17235;SDS011;8734;59.272;17.780;2024-02-26T00:17:58;32.73;;;12.00;;
17235;SDS011;8734;59.272;17.780;2024-02-26T00:20:28;29.20;;;10.97;;
17235;SDS011;8734;59.272;17.780;2024-02-26T00:22:56;26.40;;;11.30;;
17235;SDS011;8734;59.272;17.780;2024-02-26T00:25:24;39.03;;;12.03;;
17235;SDS011;8734;59.272;17.780;2024-02-26T00:27:52;33.80;;;11.87;;
17235;SDS011;8734;59.272;17.780;2024-02-26T00:30:21;36.87;;;12.20;;
17235;SDS011;8734;59.272;17.780;2024-02-26T00:32:50;39.20;;;13.73;;
17235;SDS011;8734;59.272;17.780;2024-02-26T00:35:18;33.40;;;12.17;;
17235;SDS011;8734;59.272;17.780;2024-02-26T00:37:48;34.70;;;11.83;;
17235;SDS011;8734;59.272;17.780;2024-02-26T00:40:16;44.57;;;14.97;;
17235;SDS011;8734;59.272;17.780;2024-02-26T00:42:44;39.27;;;12.43;;
17235;SDS011;8734;59.272;17.780;2024-02-26T00:45:14;43.73;;;14.17;;
17235;SDS011;8734;59.272;17.780;2024-02-26T00:47:43;39.97;;;12.30;;
17235;SDS011;8734;59.272;17.780;2024-02-26T00:50:14;44.00;;;13.67;;
17235;SDS011;8734;59.272;17.780;2024-02-26T00:52:42;41.27;;;13.10;;
17235;SDS011;8734;59.272;17.780;2024-02-26T00:55:12;36.93;;;12.43;;
17235;SDS011;8734;59.272;17.780;2024-02-26T00:57:40;39.07;;;13.43;;
17235;SDS011;8734;59.272;17.780;2024-02-26T01:00:09;46.30;;;13.73;;
17235;SDS011;8734;59.272;17.780;2024-02-26T01:02:38;44.70;;;13.43;;
17235;SDS011;8734;59.272;17.780;2024-02-26T01:05:08;47.33;;;15.50;;
17235;SDS011;8734;59.272;17.780;2024-02-26T01:07:37;43.20;;;14.70;;
17235;SDS011;8734;59.272;17.780;2024-02-26T01:10:06;37.30;;;14.17;;
17235;SDS011;8734;59.272;17.780;2024-02-26T01:12:36;49.27;;;16.03;;
17235;SDS011;8734;59.272;17.780;2024-02-26T01:15:05;44.73;;;14.53;;
17235;SDS011;8734;59.272;17.780;2024-02-26T01:17:35;40.10;;;14.50;;
17235;SDS011;8734;59.272;17.780;2024-02-26T01:20:04;55.73;;;15.73;;
17235;SDS011;8734;59.272;17.780;2024-02-26T01:22:33;38.60;;;15.20;;
17235;SDS011;8734;59.272;17.780;2024-02-26T01:25:01;48.03;;;17.17;;
17235;SDS011;8734;59.272;17.780;2024-02-26T01:27:29;43.97;;;14.53;;
17235;SDS011;8734;59.272;17.780;2024-02-26T01:29:59;51.47;;;15.40;;
17235;SDS011;8734;59.272;17.780;2024-02-26T01:32:27;49.93;;;16.20;;
17235;SDS011;8734;59.272;17.780;2024-02-26T01:34:55;43.53;;;14.17;;
17235;SDS011;8734;59.272;17.780;2024-02-26T01:37:23;51.63;;;15.77;;
17235;SDS011;8734;59.272;17.780;2024-02-26T01:39:52;34.83;;;13.37;;
17235;SDS011;8734;59.272;17.780;2024-02-26T01:42:20;44.37;;;13.70;;
17235;SDS011;8734;59.272;17.780;2024-02-26T01:44:49;55.20;;;14.97;;
17235;SDS011;8734;59.272;17.780;2024-02-26T01:47:18;55.17;;;15.03;;
17235;SDS011;8734;59.272;17.780;2024-02-26T01:49:47;71.33;;;19.27;;
17235;SDS011;8734;59.272;17.780;2024-02-26T01:52:15;56.70;;;16.70;;
17235;SDS011;8734;59.272;17.780;2024-02-26T01:54:44;72.13;;;17.90;;
17235;SDS011;8734;59.272;17.780;2024-02-26T01:57:13;62.80;;;18.10;;
17235;SDS011;8734;59.272;17.780;2024-02-26T01:59:44;57.67;;;17.33;;
17235;SDS011;8734;59.272;17.780;2024-02-26T02:02:12;59.17;;;17.10;;
17235;SDS011;8734;59.272;17.780;2024-02-26T02:04:44;48.97;;;17.13;;
17235;SDS011;8734;59.272;17.780;2024-02-26T02:07:13;58.83;;;17.20;;
17235;SDS011;8734;59.272;17.780;2024-02-26T02:09:41;54.33;;;18.00;;
17235;SDS011;8734;59.272;17.780;2024-02-26T02:12:10;67.13;;;19.03;;
17235;SDS011;8734;59.272;17.780;2024-02-26T02:14:39;50.83;;;16.57;;
17235;SDS011;8734;59.272;17.780;2024-02-26T02:17:07;58.43;;;18.80;;
17235;SDS011;8734;59.272;17.780;2024-02-26T02:19:35;68.43;;;17.97;;
17235;SDS011;8734;59.272;17.780;2024-02-26T02:22:05;70.30;;;20.23;;
17235;SDS011;8734;59.272;17.780;2024-02-26T02:24:33;66.73;;;19.10;;
17235;SDS011;8734;59.272;17.780;2024-02-26T02:27:01;61.03;;;18.27;;
17235;SDS011;8734;59.272;17.780;2024-02-26T02:29:30;66.47;;;19.93;;
17235;SDS011;8734;59.272;17.780;2024-02-26T02:31:59;63.03;;;18.03;;
17235;SDS011;8734;59.272;17.780;2024-02-26T02:34:28;65.77;;;19.70;;
17235;SDS011;8734;59.272;17.780;2024-02-26T02:36:57;67.27;;;19.23;;
17235;SDS011;8734;59.272;17.780;2024-02-26T02:39:26;57.23;;;18.53;;
17235;SDS011;8734;59.272;17.780;2024-02-26T02:41:55;60.87;;;17.80;;
17235;SDS011;8734;59.272;17.780;2024-02-26T02:44:23;65.53;;;18.40;;
17235;SDS011;8734;59.272;17.780;2024-02-26T02:46:51;54.37;;;17.23;;
17235;SDS011;8734;59.272;17.780;2024-02-26T02:49:19;77.00;;;19.77;;
17235;SDS011;8734;59.272;17.780;2024-02-26T02:51:50;65.50;;;20.17;;
17235;SDS011;8734;59.272;17.780;2024-02-26T02:54:19;59.77;;;19.23;;
17235;SDS011;8734;59.272;17.780;2024-02-26T02:56:49;66.77;;;19.73;;
17235;SDS011;8734;59.272;17.780;2024-02-26T02:59:17;63.43;;;17.77;;
17235;SDS011;8734;59.272;17.780;2024-02-26T03:01:46;55.63;;;18.23;;
17235;SDS011;8734;59.272;17.780;2024-02-26T03:04:14;54.30;;;16.43;;
17235;SDS011;8734;59.272;17.780;2024-02-26T03:06:42;51.77;;;17.27;;
17235;SDS011;8734;59.272;17.780;2024-02-26T03:09:11;44.83;;;15.97;;
17235;SDS011;8734;59.272;17.780;2024-02-26T03:11:39;50.53;;;15.87;;
17235;SDS011;8734;59.272;17.780;2024-02-26T03:14:09;50.23;;;16.30;;
17235;SDS011;8734;59.272;17.780;2024-02-26T03:16:37;41.17;;;14.80;;
17235;SDS011;8734;59.272;17.780;2024-02-26T03:19:05;48.13;;;17.67;;
17235;SDS011;8734;59.272;17.780;2024-02-26T03:21:34;49.83;;;16.00;;
17235;SDS011;8734;59.272;17.780;2024-02-26T03:24:02;53.73;;;16.93;;
17235;SDS011;8734;59.272;17.780;2024-02-26T03:26:31;58.00;;;17.57;;
17235;SDS011;8734;59.272;17.780;2024-02-26T03:28:59;46.83;;;16.27;;
17235;SDS011;8734;59.272;17.780;2024-02-26T03:31:30;53.93;;;16.73;;
17235;SDS011;8734;59.272;17.780;2024-02-26T03:34:00;50.00;;;16.63;;
17235;SDS011;8734;59.272;17.780;2024-02-26T03:36:29;52.97;;;17.40;;
17235;SDS011;8734;59.272;17.780;2024-02-26T03:38:57;39.03;;;15.03;;
17235;SDS011;8734;59.272;17.780;2024-02-26T03:41:25;42.80;;;14.80;;
17235;SDS011;8734;59.272;17.780;2024-02-26T03:43:54;38.47;;;14.13;;
17235;SDS011;8734;59.272;17.780;2024-02-26T03:46:22;43.40;;;14.50;;
17235;SDS011;8734;59.272;17.780;2024-02-26T03:48:52;40.47;;;14.70;;
17235;SDS011;8734;59.272;17.780;2024-02-26T03:51:20;40.37;;;13.97;;
17235;SDS011;8734;59.272;17.780;2024-02-26T03:53:49;34.10;;;13.83;;
17235;SDS011;8734;59.272;17.780;2024-02-26T03:56:17;41.63;;;13.63;;
17235;SDS011;8734;59.272;17.780;2024-02-26T03:58:46;48.33;;;15.97;;
17235;SDS011;8734;59.272;17.780;2024-02-26T04:01:15;46.93;;;15.07;;
17235;SDS011;8734;59.272;17.780;2024-02-26T04:03:43;42.47;;;15.23;;
17235;SDS011;8734;59.272;17.780;2024-02-26T04:06:13;37.73;;;13.07;;
17235;SDS011;8734;59.272;17.780;2024-02-26T04:08:41;47.53;;;13.47;;
17235;SDS011;8734;59.272;17.780;2024-02-26T04:11:09;39.00;;;13.47;;
17235;SDS011;8734;59.272;17.780;2024-02-26T04:13:38;45.20;;;14.23;;
17235;SDS011;8734;59.272;17.780;2024-02-26T04:16:06;33.37;;;12.27;;
17235;SDS011;8734;59.272;17.780;2024-02-26T04:18:34;40.43;;;13.43;;
17235;SDS011;8734;59.272;17.780;2024-02-26T04:21:03;36.77;;;13.30;;
17235;SDS011;8734;59.272;17.780;2024-02-26T04:23:35;42.40;;;15.03;;
17235;SDS011;8734;59.272;17.780;2024-02-26T04:26:04;33.37;;;13.20;;
17235;SDS011;8734;59.272;17.780;2024-02-26T04:28:32;46.63;;;14.20;;
17235;SDS011;8734;59.272;17.780;2024-02-26T04:31:00;30.03;;;12.17;;
17235;SDS011;8734;59.272;17.780;2024-02-26T04:33:29;33.53;;;13.27;;
17235;SDS011;8734;59.272;17.780;2024-02-26T04:35:57;43.80;;;13.30;;
17235;SDS011;8734;59.272;17.780;2024-02-26T04:38:25;35.57;;;12.77;;
17235;SDS011;8734;59.272;17.780;2024-02-26T04:40:55;30.37;;;12.30;;
17235;SDS011;8734;59.272;17.780;2024-02-26T04:43:23;28.50;;;12.27;;
17235;SDS011;8734;59.272;17.780;2024-02-26T04:45:51;38.03;;;12.53;;
17235;SDS011;8734;59.272;17.780;2024-02-26T04:48:20;30.07;;;11.80;;
17235;SDS011;8734;59.272;17.780;2024-02-26T04:50:49;30.47;;;11.83;;
17235;SDS011;8734;59.272;17.780;2024-02-26T04:53:17;32.17;;;12.77;;
17235;SDS011;8734;59.272;17.780;2024-02-26T04:55:46;37.30;;;14.03;;
17235;SDS011;8734;59.272;17.780;2024-02-26T04:58:15;32.77;;;12.73;;
17235;SDS011;8734;59.272;17.780;2024-02-26T05:00:43;29.23;;;13.10;;
17235;SDS011;8734;59.272;17.780;2024-02-26T05:03:12;29.60;;;12.07;;
17235;SDS011;8734;59.272;17.780;2024-02-26T05:05:42;31.70;;;11.37;;
17235;SDS011;8734;59.272;17.780;2024-02-26T05:08:11;25.90;;;11.67;;
17235;SDS011;8734;59.272;17.780;2024-02-26T05:10:39;31.67;;;11.67;;
17235;SDS011;8734;59.272;17.780;2024-02-26T05:13:07;31.23;;;12.47;;
17235;SDS011;8734;59.272;17.780;2024-02-26T05:15:37;31.07;;;12.30;;
17235;SDS011;8734;59.272;17.780;2024-02-26T05:18:05;34.07;;;12.70;;
17235;SDS011;8734;59.272;17.780;2024-02-26T05:20:35;29.47;;;11.80;;
17235;SDS011;8734;59.272;17.780;2024-02-26T05:23:04;34.23;;;12.23;;
17235;SDS011;8734;59.272;17.780;2024-02-26T05:25:32;35.20;;;12.60;;
17235;SDS011;8734;59.272;17.780;2024-02-26T05:28:01;30.23;;;12.33;;
17235;SDS011;8734;59.272;17.780;2024-02-26T05:30:29;30.83;;;11.87;;
17235;SDS011;8734;59.272;17.780;2024-02-26T05:32:59;33.83;;;12.97;;
17235;SDS011;8734;59.272;17.780;2024-02-26T05:35:27;39.90;;;14.63;;
17235;SDS011;8734;59.272;17.780;2024-02-26T05:37:55;37.83;;;13.83;;
17235;SDS011;8734;59.272;17.780;2024-02-26T05:40:24;37.60;;;13.30;;
17235;SDS011;8734;59.272;17.780;2024-02-26T05:42:52;33.83;;;13.87;;
17235;SDS011;8734;59.272;17.780;2024-02-26T05:45:20;39.23;;;14.07;;
17235;SDS011;8734;59.272;17.780;2024-02-26T05:47:49;40.13;;;13.57;;
17235;SDS011;8734;59.272;17.780;2024-02-26T05:50:18;36.90;;;13.70;;
17235;SDS011;8734;59.272;17.780;2024-02-26T05:52:46;37.90;;;14.77;;
17235;SDS011;8734;59.272;17.780;2024-02-26T05:55:15;35.37;;;14.50;;
17235;SDS011;8734;59.272;17.780;2024-02-26T05:57:43;45.20;;;14.53;;
17235;SDS011;8734;59.272;17.780;2024-02-26T06:00:12;38.33;;;14.00;;
17235;SDS011;8734;59.272;17.780;2024-02-26T06:02:41;48.30;;;15.73;;
17235;SDS011;8734;59.272;17.780;2024-02-26T06:05:09;50.60;;;16.43;;
17235;SDS011;8734;59.272;17.780;2024-02-26T06:07:39;53.20;;;17.43;;
17235;SDS011;8734;59.272;17.780;2024-02-26T06:10:07;46.93;;;16.10;;
17235;SDS011;8734;59.272;17.780;2024-02-26T06:12:36;48.53;;;14.70;;
17235;SDS011;8734;59.272;17.780;2024-02-26T06:15:04;49.00;;;15.40;;
17235;SDS011;8734;59.272;17.780;2024-02-26T06:17:34;52.23;;;16.40;;
17235;SDS011;8734;59.272;17.780;2024-02-26T06:20:02;46.63;;;16.13;;
17235;SDS011;8734;59.272;17.780;2024-02-26T06:22:31;50.80;;;16.93;;
17235;SDS011;8734;59.272;17.780;2024-02-26T06:25:01;43.80;;;15.50;;
17235;SDS011;8734;59.272;17.780;2024-02-26T06:27:29;52.47;;;15.50;;
17235;SDS011;8734;59.272;17.780;2024-02-26T06:29:57;49.53;;;16.13;;
17235;SDS011;8734;59.272;17.780;2024-02-26T06:32:26;44.43;;;14.50;;
17235;SDS011;8734;59.272;17.780;2024-02-26T06:34:54;42.10;;;14.47;;
17235;SDS011;8734;59.272;17.780;2024-02-26T06:37:23;43.43;;;15.20;;
17235;SDS011;8734;59.272;17.780;2024-02-26T06:39:51;38.37;;;14.33;;
17235;SDS011;8734;59.272;17.780;2024-02-26T06:42:21;43.90;;;15.00;;
17235;SDS011;8734;59.272;17.780;2024-02-26T06:44:49;43.13;;;15.10;;
17235;SDS011;8734;59.272;17.780;2024-02-26T06:47:17;55.13;;;18.10;;
17235;SDS011;8734;59.272;17.780;2024-02-26T06:49:46;64.87;;;19.00;;
17235;SDS011;8734;59.272;17.780;2024-02-26T06:52:15;61.87;;;19.63;;
17235;SDS011;8734;59.272;17.780;2024-02-26T06:54:43;71.53;;;19.50;;
17235;SDS011;8734;59.272;17.780;2024-02-26T06:57:13;67.93;;;19.53;;
17235;SDS011;8734;59.272;17.780;2024-02-26T06:59:43;66.77;;;21.07;;
17235;SDS011;8734;59.272;17.780;2024-02-26T07:02:13;72.37;;;22.17;;
17235;SDS011;8734;59.272;17.780;2024-02-26T07:04:42;91.10;;;22.20;;
17235;SDS011;8734;59.272;17.780;2024-02-26T07:07:10;79.73;;;22.23;;
17235;SDS011;8734;59.272;17.780;2024-02-26T07:09:41;82.63;;;21.70;;
17235;SDS011;8734;59.272;17.780;2024-02-26T07:12:09;77.57;;;22.17;;
17235;SDS011;8734;59.272;17.780;2024-02-26T07:14:38;71.83;;;23.60;;
17235;SDS011;8734;59.272;17.780;2024-02-26T07:17:08;74.00;;;23.97;;
17235;SDS011;8734;59.272;17.780;2024-02-26T07:19:36;72.87;;;24.30;;
17235;SDS011;8734;59.272;17.780;2024-02-26T07:22:05;67.33;;;22.60;;
17235;SDS011;8734;59.272;17.780;2024-02-26T07:24:34;83.23;;;27.33;;
17235;SDS011;8734;59.272;17.780;2024-02-26T07:27:02;86.63;;;26.83;;
17235;SDS011;8734;59.272;17.780;2024-02-26T07:29:31;90.27;;;28.37;;
17235;SDS011;8734;59.272;17.780;2024-02-26T07:31:59;87.53;;;27.07;;
17235;SDS011;8734;59.272;17.780;2024-02-26T07:34:29;79.37;;;26.73;;
17235;SDS011;8734;59.272;17.780;2024-02-26T07:36:57;88.50;;;28.57;;
17235;SDS011;8734;59.272;17.780;2024-02-26T07:39:25;94.37;;;28.03;;
17235;SDS011;8734;59.272;17.780;2024-02-26T07:41:54;85.53;;;28.13;;
17235;SDS011;8734;59.272;17.780;2024-02-26T07:44:22;91.77;;;29.30;;
17235;SDS011;8734;59.272;17.780;2024-02-26T07:46:52;89.23;;;28.40;;
17235;SDS011;8734;59.272;17.780;2024-02-26T07:49:20;86.70;;;27.83;;
17235;SDS011;8734;59.272;17.780;2024-02-26T07:51:50;93.93;;;28.83;;
17235;SDS011;8734;59.272;17.780;2024-02-26T07:54:18;94.47;;;28.40;;
17235;SDS011;8734;59.272;17.780;2024-02-26T07:56:46;89.37;;;28.73;;
17235;SDS011;8734;59.272;17.780;2024-02-26T07:59:14;94.87;;;29.87;;
17235;SDS011;8734;59.272;17.780;2024-02-26T08:01:42;90.27;;;28.37;;
17235;SDS011;8734;59.272;17.780;2024-02-26T08:04:17;98.07;;;30.70;;
17235;SDS011;8734;59.272;17.780;2024-02-26T08:06:46;103.00;;;30.70;;
17235;SDS011;8734;59.272;17.780;2024-02-26T08:09:15;92.63;;;31.67;;
17235;SDS011;8734;59.272;17.780;2024-02-26T08:11:44;93.47;;;31.33;;
17235;SDS011;8734;59.272;17.780;2024-02-26T08:14:12;90.07;;;31.73;;
17235;SDS011;8734;59.272;17.780;2024-02-26T08:16:40;84.33;;;27.70;;
17235;SDS011;8734;59.272;17.780;2024-02-26T08:19:08;79.27;;;29.33;;
17235;SDS011;8734;59.272;17.780;2024-02-26T08:21:40;73.13;;;28.60;;
17235;SDS011;8734;59.272;17.780;2024-02-26T08:24:08;67.73;;;26.17;;
17235;SDS011;8734;59.272;17.780;2024-02-26T08:26:38;70.67;;;27.63;;
17235;SDS011;8734;59.272;17.780;2024-02-26T08:29:06;80.93;;;26.23;;
17235;SDS011;8734;59.272;17.780;2024-02-26T08:31:34;65.87;;;25.70;;
17235;SDS011;8734;59.272;17.780;2024-02-26T08:34:04;56.13;;;24.53;;
17235;SDS011;8734;59.272;17.780;2024-02-26T08:36:33;54.70;;;22.37;;
17235;SDS011;8734;59.272;17.780;2024-02-26T08:39:02;52.77;;;22.07;;
17235;SDS011;8734;59.272;17.780;2024-02-26T08:41:30;53.57;;;20.53;;
17235;SDS011;8734;59.272;17.780;2024-02-26T08:44:00;46.53;;;21.00;;
17235;SDS011;8734;59.272;17.780;2024-02-26T08:46:28;48.77;;;21.43;;
17235;SDS011;8734;59.272;17.780;2024-02-26T08:48:56;41.20;;;18.97;;
17235;SDS011;8734;59.272;17.780;2024-02-26T08:51:25;31.00;;;17.70;;
17235;SDS011;8734;59.272;17.780;2024-02-26T08:53:53;35.30;;;16.13;;
17235;SDS011;8734;59.272;17.780;2024-02-26T08:56:22;35.33;;;16.47;;
17235;SDS011;8734;59.272;17.780;2024-02-26T08:58:50;31.20;;;16.10;;
17235;SDS011;8734;59.272;17.780;2024-02-26T09:01:21;34.03;;;15.90;;
17235;SDS011;8734;59.272;17.780;2024-02-26T09:03:53;34.27;;;16.77;;
17235;SDS011;8734;59.272;17.780;2024-02-26T09:06:21;34.17;;;16.90;;
17235;SDS011;8734;59.272;17.780;2024-02-26T09:08:49;32.17;;;15.63;;
17235;SDS011;8734;59.272;17.780;2024-02-26T09:11:17;38.53;;;17.47;;
17235;SDS011;8734;59.272;17.780;2024-02-26T09:13:46;32.40;;;16.23;;
17235;SDS011;8734;59.272;17.780;2024-02-26T09:16:14;37.67;;;16.37;;
17235;SDS011;8734;59.272;17.780;2024-02-26T09:18:43;36.50;;;16.47;;
17235;SDS011;8734;59.272;17.780;2024-02-26T09:21:12;37.37;;;18.23;;
17235;SDS011;8734;59.272;17.780;2024-02-26T09:23:40;38.73;;;18.17;;
17235;SDS011;8734;59.272;17.780;2024-02-26T09:26:08;43.20;;;19.03;;
17235;SDS011;8734;59.272;17.780;2024-02-26T09:28:36;39.90;;;18.10;;
17235;SDS011;8734;59.272;17.780;2024-02-26T09:31:05;39.27;;;18.00;;
17235;SDS011;8734;59.272;17.780;2024-02-26T09:33:33;45.10;;;19.97;;
17235;SDS011;8734;59.272;17.780;2024-02-26T09:36:04;30.53;;;15.13;;
17235;SDS011;8734;59.272;17.780;2024-02-26T09:38:33;29.70;;;15.53;;
17235;SDS011;8734;59.272;17.780;2024-02-26T09:41:21;30.40;;;14.37;;
17235;SDS011;8734;59.272;17.780;2024-02-26T09:43:55;28.47;;;14.63;;
17235;SDS011;8734;59.272;17.780;2024-02-26T09:46:26;33.70;;;15.73;;
17235;SDS011;8734;59.272;17.780;2024-02-26T09:48:55;36.90;;;15.83;;
17235;SDS011;8734;59.272;17.780;2024-02-26T09:51:25;29.27;;;15.50;;
17235;SDS011;8734;59.272;17.780;2024-02-26T09:53:53;30.10;;;15.30;;
17235;SDS011;8734;59.272;17.780;2024-02-26T09:56:24;38.60;;;15.07;;
17235;SDS011;8734;59.272;17.780;2024-02-26T09:58:52;29.87;;;14.87;;
17235;SDS011;8734;59.272;17.780;2024-02-26T10:01:23;29.50;;;13.80;;
17235;SDS011;8734;59.272;17.780;2024-02-26T10:03:55;26.70;;;13.33;;
17235;SDS011;8734;59.272;17.780;2024-02-26T10:06:27;30.07;;;13.40;;
17235;SDS011;8734;59.272;17.780;2024-02-26T10:08:55;24.80;;;12.83;;
17235;SDS011;8734;59.272;17.780;2024-02-26T10:11:25;25.53;;;13.53;;
17235;SDS011;8734;59.272;17.780;2024-02-26T10:13:55;27.07;;;12.50;;
17235;SDS011;8734;59.272;17.780;2024-02-26T10:16:23;28.47;;;12.67;;
17235;SDS011;8734;59.272;17.780;2024-02-26T10:18:52;32.00;;;13.77;;
17235;SDS011;8734;59.272;17.780;2024-02-26T10:21:26;21.90;;;10.67;;
17235;SDS011;8734;59.272;17.780;2024-02-26T10:23:55;21.90;;;11.10;;
17235;SDS011;8734;59.272;17.780;2024-02-26T10:26:23;27.10;;;11.10;;
17235;SDS011;8734;59.272;17.780;2024-02-26T10:28:52;24.83;;;11.13;;
17235;SDS011;8734;59.272;17.780;2024-02-26T10:31:21;22.00;;;11.00;;
17235;SDS011;8734;59.272;17.780;2024-02-26T10:33:49;19.17;;;10.10;;
17235;SDS011;8734;59.272;17.780;2024-02-26T10:36:23;19.40;;;10.63;;
17235;SDS011;8734;59.272;17.780;2024-02-26T10:39:13;28.23;;;11.40;;
17235;SDS011;8734;59.272;17.780;2024-02-26T10:41:42;23.13;;;11.70;;
17235;SDS011;8734;59.272;17.780;2024-02-26T10:44:11;21.00;;;10.00;;
17235;SDS011;8734;59.272;17.780;2024-02-26T10:46:44;26.40;;;11.67;;
17235;SDS011;8734;59.272;17.780;2024-02-26T10:49:15;23.07;;;12.27;;
17235;SDS011;8734;59.272;17.780;2024-02-26T10:51:50;28.90;;;13.00;;
17235;SDS011;8734;59.272;17.780;2024-02-26T10:54:22;22.10;;;12.43;;
17235;SDS011;8734;59.272;17.780;2024-02-26T10:56:53;27.57;;;13.63;;
17235;SDS011;8734;59.272;17.780;2024-02-26T10:59:23;28.80;;;13.37;;
17235;SDS011;8734;59.272;17.780;2024-02-26T11:01:51;26.93;;;12.97;;
17235;SDS011;8734;59.272;17.780;2024-02-26T11:04:22;22.33;;;11.47;;
17235;SDS011;8734;59.272;17.780;2024-02-26T11:06:55;29.10;;;13.27;;
17235;SDS011;8734;59.272;17.780;2024-02-26T11:09:25;25.87;;;14.00;;
17235;SDS011;8734;59.272;17.780;2024-02-26T11:11:55;31.37;;;14.33;;
17235;SDS011;8734;59.272;17.780;2024-02-26T11:14:25;28.40;;;13.27;;
17235;SDS011;8734;59.272;17.780;2024-02-26T11:16:57;26.93;;;13.87;;
17235;SDS011;8734;59.272;17.780;2024-02-26T11:19:27;29.23;;;13.83;;
17235;SDS011;8734;59.272;17.780;2024-02-26T11:22:02;30.50;;;14.53;;
17235;SDS011;8734;59.272;17.780;2024-02-26T11:24:46;25.40;;;12.33;;
17235;SDS011;8734;59.272;17.780;2024-02-26T11:27:15;30.40;;;13.60;;
17235;SDS011;8734;59.272;17.780;2024-02-26T11:29:47;35.93;;;13.97;;
17235;SDS011;8734;59.272;17.780;2024-02-26T11:32:18;30.63;;;13.40;;
17235;SDS011;8734;59.272;17.780;2024-02-26T11:34:47;39.20;;;14.57;;
17235;SDS011;8734;59.272;17.780;2024-02-26T11:37:17;28.70;;;13.97;;
17235;SDS011;8734;59.272;17.780;2024-02-26T11:39:46;28.80;;;13.27;;
17235;SDS011;8734;59.272;17.780;2024-02-26T11:42:15;30.33;;;14.53;;
17235;SDS011;8734;59.272;17.780;2024-02-26T11:44:44;29.80;;;14.50;;
17235;SDS011;8734;59.272;17.780;2024-02-26T11:47:13;34.73;;;13.77;;
17235;SDS011;8734;59.272;17.780;2024-02-26T11:49:45;32.47;;;13.63;;
17235;SDS011;8734;59.272;17.780;2024-02-26T11:52:14;23.47;;;12.53;;
17235;SDS011;8734;59.272;17.780;2024-02-26T11:54:45;26.70;;;13.63;;
17235;SDS011;8734;59.272;17.780;2024-02-26T11:57:21;33.70;;;14.17;;
17235;SDS011;8734;59.272;17.780;2024-02-26T11:59:54;29.37;;;14.33;;
17235;SDS011;8734;59.272;17.780;2024-02-26T12:05:15;35.73;;;14.10;;
17235;SDS011;8734;59.272;17.780;2024-02-26T12:07:46;37.90;;;14.00;;
17235;SDS011;8734;59.272;17.780;2024-02-26T12:10:26;29.87;;;13.67;;
17235;SDS011;8734;59.272;17.780;2024-02-26T12:12:58;26.40;;;12.33;;
17235;SDS011;8734;59.272;17.780;2024-02-26T12:15:31;28.20;;;13.73;;
17235;SDS011;8734;59.272;17.780;2024-02-26T12:18:04;27.47;;;12.13;;
17235;SDS011;8734;59.272;17.780;2024-02-26T12:20:34;28.37;;;11.70;;
17235;SDS011;8734;59.272;17.780;2024-02-26T12:23:03;27.10;;;12.30;;
17235;SDS011;8734;59.272;17.780;2024-02-26T12:25:33;23.50;;;11.57;;
17235;SDS011;8734;59.272;17.780;2024-02-26T12:28:01;26.27;;;10.73;;
17235;SDS011;8734;59.272;17.780;2024-02-26T12:30:30;20.40;;;11.20;;
17235;SDS011;8734;59.272;17.780;2024-02-26T12:32:59;21.33;;;10.87;;
17235;SDS011;8734;59.272;17.780;2024-02-26T12:35:27;22.53;;;11.33;;
17235;SDS011;8734;59.272;17.780;2024-02-26T12:37:58;23.73;;;11.33;;
17235;SDS011;8734;59.272;17.780;2024-02-26T12:40:30;34.37;;;10.67;;
17235;SDS011;8734;59.272;17.780;2024-02-26T12:42:59;22.03;;;11.10;;
17235;SDS011;8734;59.272;17.780;2024-02-26T12:45:29;19.47;;;10.47;;
17235;SDS011;8734;59.272;17.780;2024-02-26T12:47:58;26.20;;;11.10;;
17235;SDS011;8734;59.272;17.780;2024-02-26T12:50:27;21.60;;;10.90;;
17235;SDS011;8734;59.272;17.780;2024-02-26T12:52:56;26.27;;;11.77;;
17235;SDS011;8734;59.272;17.780;2024-02-26T12:55:24;18.93;;;9.87;;
17235;SDS011;8734;59.272;17.780;2024-02-26T12:57:54;17.40;;;9.87;;
17235;SDS011;8734;59.272;17.780;2024-02-26T13:00:24;24.67;;;10.33;;
17235;SDS011;8734;59.272;17.780;2024-02-26T13:02:55;27.20;;;9.87;;
17235;SDS011;8734;59.272;17.780;2024-02-26T13:05:23;19.33;;;10.33;;
17235;SDS011;8734;59.272;17.780;2024-02-26T13:07:52;18.73;;;10.03;;
17235;SDS011;8734;59.272;17.780;2024-02-26T13:10:21;22.17;;;10.10;;
17235;SDS011;8734;59.272;17.780;2024-02-26T13:12:51;21.00;;;9.97;;
17235;SDS011;8734;59.272;17.780;2024-02-26T13:15:21;22.10;;;10.23;;
17235;SDS011;8734;59.272;17.780;2024-02-26T13:17:50;19.93;;;10.30;;
17235;SDS011;8734;59.272;17.780;2024-02-26T13:20:26;19.37;;;10.40;;
17235;SDS011;8734;59.272;17.780;2024-02-26T13:23:00;18.67;;;9.80;;
17235;SDS011;8734;59.272;17.780;2024-02-26T13:25:29;24.10;;;9.87;;
17235;SDS011;8734;59.272;17.780;2024-02-26T13:28:05;18.47;;;9.10;;
17235;SDS011;8734;59.272;17.780;2024-02-26T13:30:41;21.10;;;10.87;;
17235;SDS011;8734;59.272;17.780;2024-02-26T13:33:17;19.27;;;9.60;;
17235;SDS011;8734;59.272;17.780;2024-02-26T13:35:46;20.03;;;10.77;;
17235;SDS011;8734;59.272;17.780;2024-02-26T13:38:14;16.10;;;9.07;;
17235;SDS011;8734;59.272;17.780;2024-02-26T13:40:43;18.73;;;9.90;;
17235;SDS011;8734;59.272;17.780;2024-02-26T13:43:11;16.10;;;8.97;;
17235;SDS011;8734;59.272;17.780;2024-02-26T13:45:39;17.87;;;9.53;;
17235;SDS011;8734;59.272;17.780;2024-02-26T13:48:10;16.43;;;8.87;;
17235;SDS011;8734;59.272;17.780;2024-02-26T13:50:39;18.33;;;9.20;;
17235;SDS011;8734;59.272;17.780;2024-02-26T13:53:09;16.87;;;8.93;;
17235;SDS011;8734;59.272;17.780;2024-02-26T13:55:37;18.47;;;8.97;;
17235;SDS011;8734;59.272;17.780;2024-02-26T13:58:08;22.30;;;8.80;;
17235;SDS011;8734;59.272;17.780;2024-02-26T14:00:40;18.10;;;8.20;;
17235;SDS011;8734;59.272;17.780;2024-02-26T14:03:10;20.40;;;9.20;;
17235;SDS011;8734;59.272;17.780;2024-02-26T14:05:38;18.10;;;10.03;;
17235;SDS011;8734;59.272;17.780;2024-02-26T14:08:11;18.53;;;9.77;;
17235;SDS011;8734;59.272;17.780;2024-02-26T14:10:40;18.43;;;8.50;;
17235;SDS011;8734;59.272;17.780;2024-02-26T14:13:08;13.80;;;7.90;;
17235;SDS011;8734;59.272;17.780;2024-02-26T14:15:36;18.27;;;9.27;;
17235;SDS011;8734;59.272;17.780;2024-02-26T14:18:07;19.57;;;9.90;;
17235;SDS011;8734;59.272;17.780;2024-02-26T14:20:36;19.67;;;9.37;;
17235;SDS011;8734;59.272;17.780;2024-02-26T14:23:05;15.73;;;8.87;;
17235;SDS011;8734;59.272;17.780;2024-02-26T14:25:33;17.83;;;9.83;;
17235;SDS011;8734;59.272;17.780;2024-02-26T14:28:01;21.67;;;9.77;;
17235;SDS011;8734;59.272;17.780;2024-02-26T14:30:29;17.67;;;9.97;;
17235;SDS011;8734;59.272;17.780;2024-02-26T14:32:59;20.93;;;8.93;;
17235;SDS011;8734;59.272;17.780;2024-02-26T14:35:28;19.53;;;9.83;;
17235;SDS011;8734;59.272;17.780;2024-02-26T14:37:57;19.60;;;9.80;;